sensor_id;sensor_type;location;lat;lon;timestamp;temperature;humidity
41722;DHT22;27407;24.142;-110.310;2023-04-26T00:01:59;38.60;49.60
41722;DHT22;27407;24.142;-110.310;2023-04-26T00:04:27;38.50;50.10
41722;DHT22;27407;24.142;-110.310;2023-04-26T00:06:54;38.40;50.00
41722;DHT22;27407;24.142;-110.310;2023-04-26T00:09:20;38.80;50.60
41722;DHT22;27407;24.142;-110.310;2023-04-26T00:11:51;38.20;49.70
41722;DHT22;27407;24.142;-110.310;2023-04-26T00:14:18;38.30;49.80
41722;DHT22;27407;24.142;-110.310;2023-04-26T00:16:45;38.60;49.30
41722;DHT22;27407;24.142;-110.310;2023-04-26T00:19:12;39.10;49.60
41722;DHT22;27407;24.142;-110.310;2023-04-26T00:21:39;38.40;50.30
41722;DHT22;27407;24.142;-110.310;2023-04-26T00:24:07;36.50;49.80
41722;DHT22;27407;24.142;-110.310;2023-04-26T00:26:44;36.10;51.20
41722;DHT22;27407;24.142;-110.310;2023-04-26T00:29:14;36.70;50.50
41722;DHT22;27407;24.142;-110.310;2023-04-26T00:31:44;36.80;49.80
41722;DHT22;27407;24.142;-110.310;2023-04-26T00:39:45;37.30;49.50
41722;DHT22;27407;24.142;-110.310;2023-04-26T00:42:18;37.30;50.10
41722;DHT22;27407;24.142;-110.310;2023-04-26T00:44:45;36.80;50.20
41722;DHT22;27407;24.142;-110.310;2023-04-26T00:47:16;36.80;50.20
41722;DHT22;27407;24.142;-110.310;2023-04-26T00:49:49;36.50;50.00
41722;DHT22;27407;24.142;-110.310;2023-04-26T00:52:19;36.10;50.00
41722;DHT22;27407;24.142;-110.310;2023-04-26T00:54:53;36.10;49.60
41722;DHT22;27407;24.142;-110.310;2023-04-26T00:57:21;35.00;50.80
41722;DHT22;27407;24.142;-110.310;2023-04-26T00:59:49;35.20;50.90
41722;DHT22;27407;24.142;-110.310;2023-04-26T01:02:19;35.20;50.80
41722;DHT22;27407;24.142;-110.310;2023-04-26T01:04:46;35.30;50.60
41722;DHT22;27407;24.142;-110.310;2023-04-26T01:07:22;35.30;51.30
41722;DHT22;27407;24.142;-110.310;2023-04-26T01:09:50;34.70;52.00
41722;DHT22;27407;24.142;-110.310;2023-04-26T01:12:18;34.50;52.30
41722;DHT22;27407;24.142;-110.310;2023-04-26T01:14:46;34.50;52.50
41722;DHT22;27407;24.142;-110.310;2023-04-26T01:17:13;34.30;53.10
41722;DHT22;27407;24.142;-110.310;2023-04-26T01:19:50;34.20;53.50
41722;DHT22;27407;24.142;-110.310;2023-04-26T01:22:17;33.80;54.70
41722;DHT22;27407;24.142;-110.310;2023-04-26T01:24:50;33.30;56.50
41722;DHT22;27407;24.142;-110.310;2023-04-26T01:27:17;32.30;59.30
41722;DHT22;27407;24.142;-110.310;2023-04-26T01:29:44;31.30;62.70
41722;DHT22;27407;24.142;-110.310;2023-04-26T01:32:11;30.70;65.20
41722;DHT22;27407;24.142;-110.310;2023-04-26T01:34:38;30.30;68.00
41722;DHT22;27407;24.142;-110.310;2023-04-26T01:37:05;29.60;70.70
41722;DHT22;27407;24.142;-110.310;2023-04-26T01:39:33;29.30;72.20
41722;DHT22;27407;24.142;-110.310;2023-04-26T01:42:02;28.70;73.50
41722;DHT22;27407;24.142;-110.310;2023-04-26T01:44:30;28.40;75.00
41722;DHT22;27407;24.142;-110.310;2023-04-26T01:46:57;28.30;76.10
41722;DHT22;27407;24.142;-110.310;2023-04-26T01:49:23;28.00;77.80
41722;DHT22;27407;24.142;-110.310;2023-04-26T01:51:50;27.60;79.50
41722;DHT22;27407;24.142;-110.310;2023-04-26T01:54:17;27.30;80.50
41722;DHT22;27407;24.142;-110.310;2023-04-26T01:56:44;27.10;81.70
41722;DHT22;27407;24.142;-110.310;2023-04-26T01:59:11;26.80;83.00
41722;DHT22;27407;24.142;-110.310;2023-04-26T02:01:39;26.60;84.00
41722;DHT22;27407;24.142;-110.310;2023-04-26T02:04:06;26.50;85.20
41722;DHT22;27407;24.142;-110.310;2023-04-26T02:06:33;26.50;86.70
41722;DHT22;27407;24.142;-110.310;2023-04-26T02:08:59;26.30;87.80
41722;DHT22;27407;24.142;-110.310;2023-04-26T02:11:26;25.90;88.90
41722;DHT22;27407;24.142;-110.310;2023-04-26T02:13:53;26.00;89.80
41722;DHT22;27407;24.142;-110.310;2023-04-26T02:16:20;26.10;90.10
41722;DHT22;27407;24.142;-110.310;2023-04-26T02:18:47;26.10;90.40
41722;DHT22;27407;24.142;-110.310;2023-04-26T02:21:18;26.10;90.90
41722;DHT22;27407;24.142;-110.310;2023-04-26T02:23:45;25.90;91.40
41722;DHT22;27407;24.142;-110.310;2023-04-26T02:26:12;25.70;92.10
41722;DHT22;27407;24.142;-110.310;2023-04-26T02:28:38;25.80;92.40
41722;DHT22;27407;24.142;-110.310;2023-04-26T02:31:05;25.60;92.90
41722;DHT22;27407;24.142;-110.310;2023-04-26T02:33:31;25.50;93.70
41722;DHT22;27407;24.142;-110.310;2023-04-26T02:36:01;25.30;94.40
41722;DHT22;27407;24.142;-110.310;2023-04-26T02:38:27;25.20;95.50
41722;DHT22;27407;24.142;-110.310;2023-04-26T02:41:00;25.10;96.30
41722;DHT22;27407;24.142;-110.310;2023-04-26T02:43:29;25.00;97.50
41722;DHT22;27407;24.142;-110.310;2023-04-26T02:45:55;24.90;98.20
41722;DHT22;27407;24.142;-110.310;2023-04-26T02:48:24;24.70;99.90
41722;DHT22;27407;24.142;-110.310;2023-04-26T02:50:50;24.60;99.90
41722;DHT22;27407;24.142;-110.310;2023-04-26T02:53:18;24.40;99.90
41722;DHT22;27407;24.142;-110.310;2023-04-26T02:55:44;24.40;99.90
41722;DHT22;27407;24.142;-110.310;2023-04-26T02:58:11;24.30;99.90
41722;DHT22;27407;24.142;-110.310;2023-04-26T03:00:38;24.30;99.90
41722;DHT22;27407;24.142;-110.310;2023-04-26T03:03:04;24.30;99.90
41722;DHT22;27407;24.142;-110.310;2023-04-26T03:05:31;24.20;99.90
41722;DHT22;27407;24.142;-110.310;2023-04-26T03:07:58;23.90;99.90
41722;DHT22;27407;24.142;-110.310;2023-04-26T03:10:24;23.90;99.90
41722;DHT22;27407;24.142;-110.310;2023-04-26T03:12:51;23.90;99.90
41722;DHT22;27407;24.142;-110.310;2023-04-26T03:15:17;24.00;99.90
41722;DHT22;27407;24.142;-110.310;2023-04-26T03:17:44;23.80;99.90
41722;DHT22;27407;24.142;-110.310;2023-04-26T03:20:11;23.80;99.90
41722;DHT22;27407;24.142;-110.310;2023-04-26T03:22:38;23.60;99.90
41722;DHT22;27407;24.142;-110.310;2023-04-26T03:25:05;23.70;99.90
41722;DHT22;27407;24.142;-110.310;2023-04-26T03:27:32;23.50;99.90
41722;DHT22;27407;24.142;-110.310;2023-04-26T03:29:59;23.60;99.90
41722;DHT22;27407;24.142;-110.310;2023-04-26T03:32:26;23.50;99.90
41722;DHT22;27407;24.142;-110.310;2023-04-26T03:34:52;23.60;99.90
41722;DHT22;27407;24.142;-110.310;2023-04-26T03:37:19;23.60;99.90
41722;DHT22;27407;24.142;-110.310;2023-04-26T03:39:45;23.60;99.90
41722;DHT22;27407;24.142;-110.310;2023-04-26T03:42:18;23.50;99.90
41722;DHT22;27407;24.142;-110.310;2023-04-26T03:44:45;23.20;99.90
41722;DHT22;27407;24.142;-110.310;2023-04-26T03:47:12;23.00;99.90
41722;DHT22;27407;24.142;-110.310;2023-04-26T03:49:41;23.00;99.90
41722;DHT22;27407;24.142;-110.310;2023-04-26T03:52:07;23.00;99.90
41722;DHT22;27407;24.142;-110.310;2023-04-26T03:54:34;23.00;99.90
41722;DHT22;27407;24.142;-110.310;2023-04-26T03:57:01;22.90;99.90
41722;DHT22;27407;24.142;-110.310;2023-04-26T03:59:28;22.80;99.90
41722;DHT22;27407;24.142;-110.310;2023-04-26T04:01:54;22.70;99.90
41722;DHT22;27407;24.142;-110.310;2023-04-26T04:04:21;22.70;99.90
41722;DHT22;27407;24.142;-110.310;2023-04-26T04:06:47;22.60;99.90
41722;DHT22;27407;24.142;-110.310;2023-04-26T04:09:14;22.60;99.90
41722;DHT22;27407;24.142;-110.310;2023-04-26T04:11:40;22.60;99.90
41722;DHT22;27407;24.142;-110.310;2023-04-26T04:14:09;22.50;99.90
41722;DHT22;27407;24.142;-110.310;2023-04-26T04:16:36;22.50;99.90
41722;DHT22;27407;24.142;-110.310;2023-04-26T04:19:02;22.50;99.90
41722;DHT22;27407;24.142;-110.310;2023-04-26T04:21:29;22.60;99.90
41722;DHT22;27407;24.142;-110.310;2023-04-26T04:23:57;22.60;99.90
41722;DHT22;27407;24.142;-110.310;2023-04-26T04:26:23;22.60;99.90
41722;DHT22;27407;24.142;-110.310;2023-04-26T04:28:50;22.50;99.90
41722;DHT22;27407;24.142;-110.310;2023-04-26T04:31:18;22.60;99.90
41722;DHT22;27407;24.142;-110.310;2023-04-26T04:33:44;22.50;99.90
41722;DHT22;27407;24.142;-110.310;2023-04-26T04:36:12;22.40;99.90
41722;DHT22;27407;24.142;-110.310;2023-04-26T04:38:41;22.40;99.90
41722;DHT22;27407;24.142;-110.310;2023-04-26T04:41:09;22.30;99.90
41722;DHT22;27407;24.142;-110.310;2023-04-26T04:43:51;22.20;99.90
41722;DHT22;27407;24.142;-110.310;2023-04-26T04:46:23;22.20;99.90
41722;DHT22;27407;24.142;-110.310;2023-04-26T04:49:06;21.90;99.90
41722;DHT22;27407;24.142;-110.310;2023-04-26T04:51:39;22.00;99.90
41722;DHT22;27407;24.142;-110.310;2023-04-26T04:54:14;21.90;99.90
41722;DHT22;27407;24.142;-110.310;2023-04-26T04:56:46;22.00;99.90
41722;DHT22;27407;24.142;-110.310;2023-04-26T04:59:58;21.70;99.90
41722;DHT22;27407;24.142;-110.310;2023-04-26T05:02:52;21.70;99.90
41722;DHT22;27407;24.142;-110.310;2023-04-26T05:05:21;21.50;99.90
41722;DHT22;27407;24.142;-110.310;2023-04-26T05:07:51;21.50;99.90
41722;DHT22;27407;24.142;-110.310;2023-04-26T05:10:22;21.40;99.90
41722;DHT22;27407;24.142;-110.310;2023-04-26T05:12:52;21.40;99.90
41722;DHT22;27407;24.142;-110.310;2023-04-26T05:15:45;21.40;99.90
41722;DHT22;27407;24.142;-110.310;2023-04-26T05:18:12;21.30;99.90
41722;DHT22;27407;24.142;-110.310;2023-04-26T05:20:39;21.20;99.90
41722;DHT22;27407;24.142;-110.310;2023-04-26T05:23:06;21.20;99.90
41722;DHT22;27407;24.142;-110.310;2023-04-26T05:25:36;21.10;99.90
41722;DHT22;27407;24.142;-110.310;2023-04-26T05:28:03;21.10;99.90
41722;DHT22;27407;24.142;-110.310;2023-04-26T05:30:29;20.90;99.90
41722;DHT22;27407;24.142;-110.310;2023-04-26T05:32:59;20.90;99.90
41722;DHT22;27407;24.142;-110.310;2023-04-26T05:35:25;21.00;99.90
41722;DHT22;27407;24.142;-110.310;2023-04-26T05:37:52;21.00;99.90
41722;DHT22;27407;24.142;-110.310;2023-04-26T05:40:22;21.10;99.90
41722;DHT22;27407;24.142;-110.310;2023-04-26T05:42:52;21.00;99.90
41722;DHT22;27407;24.142;-110.310;2023-04-26T05:45:19;21.00;99.90
41722;DHT22;27407;24.142;-110.310;2023-04-26T05:47:46;20.90;99.90
41722;DHT22;27407;24.142;-110.310;2023-04-26T05:50:13;20.90;99.90
41722;DHT22;27407;24.142;-110.310;2023-04-26T05:52:39;20.90;99.90
41722;DHT22;27407;24.142;-110.310;2023-04-26T05:55:06;21.00;99.90
41722;DHT22;27407;24.142;-110.310;2023-04-26T05:57:36;21.00;99.90
41722;DHT22;27407;24.142;-110.310;2023-04-26T06:00:05;21.00;99.90
41722;DHT22;27407;24.142;-110.310;2023-04-26T06:02:34;20.90;99.90
41722;DHT22;27407;24.142;-110.310;2023-04-26T06:05:00;20.90;99.90
41722;DHT22;27407;24.142;-110.310;2023-04-26T06:07:27;20.80;99.90
41722;DHT22;27407;24.142;-110.310;2023-04-26T06:09:59;20.60;99.90
41722;DHT22;27407;24.142;-110.310;2023-04-26T06:12:35;20.50;99.90
41722;DHT22;27407;24.142;-110.310;2023-04-26T06:15:05;20.50;99.90
41722;DHT22;27407;24.142;-110.310;2023-04-26T06:17:35;20.60;99.90
41722;DHT22;27407;24.142;-110.310;2023-04-26T06:20:02;20.50;99.90
41722;DHT22;27407;24.142;-110.310;2023-04-26T06:22:28;20.60;99.90
41722;DHT22;27407;24.142;-110.310;2023-04-26T06:24:58;20.40;99.90
41722;DHT22;27407;24.142;-110.310;2023-04-26T06:27:25;20.60;99.90
41722;DHT22;27407;24.142;-110.310;2023-04-26T06:29:51;20.40;99.90
41722;DHT22;27407;24.142;-110.310;2023-04-26T06:32:18;20.40;99.90
41722;DHT22;27407;24.142;-110.310;2023-04-26T06:34:44;20.40;99.90
41722;DHT22;27407;24.142;-110.310;2023-04-26T06:37:11;20.30;99.90
41722;DHT22;27407;24.142;-110.310;2023-04-26T06:39:38;20.20;99.90
41722;DHT22;27407;24.142;-110.310;2023-04-26T06:42:07;20.30;99.90
41722;DHT22;27407;24.142;-110.310;2023-04-26T06:44:34;20.30;99.90
41722;DHT22;27407;24.142;-110.310;2023-04-26T06:47:01;20.10;99.90
41722;DHT22;27407;24.142;-110.310;2023-04-26T06:49:27;20.10;99.90
41722;DHT22;27407;24.142;-110.310;2023-04-26T06:51:54;20.20;99.90
41722;DHT22;27407;24.142;-110.310;2023-04-26T06:54:30;20.20;99.90
41722;DHT22;27407;24.142;-110.310;2023-04-26T06:57:01;20.10;99.90
41722;DHT22;27407;24.142;-110.310;2023-04-26T06:59:28;20.20;99.90
41722;DHT22;27407;24.142;-110.310;2023-04-26T07:01:55;20.10;99.90
41722;DHT22;27407;24.142;-110.310;2023-04-26T07:04:21;19.90;99.90
41722;DHT22;27407;24.142;-110.310;2023-04-26T07:06:48;20.00;99.90
41722;DHT22;27407;24.142;-110.310;2023-04-26T07:09:15;20.10;99.90
41722;DHT22;27407;24.142;-110.310;2023-04-26T07:12:10;19.90;99.90
41722;DHT22;27407;24.142;-110.310;2023-04-26T07:14:40;19.90;99.90
41722;DHT22;27407;24.142;-110.310;2023-04-26T07:17:09;19.90;99.90
41722;DHT22;27407;24.142;-110.310;2023-04-26T07:19:38;19.90;99.90
41722;DHT22;27407;24.142;-110.310;2023-04-26T07:22:07;20.00;99.90
41722;DHT22;27407;24.142;-110.310;2023-04-26T07:24:37;19.90;99.90
41722;DHT22;27407;24.142;-110.310;2023-04-26T07:27:06;20.10;99.90
41722;DHT22;27407;24.142;-110.310;2023-04-26T07:29:33;19.90;99.90
41722;DHT22;27407;24.142;-110.310;2023-04-26T07:32:00;19.90;99.90
41722;DHT22;27407;24.142;-110.310;2023-04-26T07:34:27;19.70;99.90
41722;DHT22;27407;24.142;-110.310;2023-04-26T07:36:53;19.60;99.90
41722;DHT22;27407;24.142;-110.310;2023-04-26T07:39:21;19.60;99.90
41722;DHT22;27407;24.142;-110.310;2023-04-26T07:41:47;19.70;99.90
41722;DHT22;27407;24.142;-110.310;2023-04-26T07:44:14;19.40;99.90
41722;DHT22;27407;24.142;-110.310;2023-04-26T07:46:41;19.40;99.90
41722;DHT22;27407;24.142;-110.310;2023-04-26T07:49:07;19.40;99.90
41722;DHT22;27407;24.142;-110.310;2023-04-26T07:51:35;19.30;99.90
41722;DHT22;27407;24.142;-110.310;2023-04-26T07:54:02;19.30;99.90
41722;DHT22;27407;24.142;-110.310;2023-04-26T07:56:29;19.40;99.90
41722;DHT22;27407;24.142;-110.310;2023-04-26T07:58:55;19.40;99.90
41722;DHT22;27407;24.142;-110.310;2023-04-26T08:01:22;19.20;99.90
41722;DHT22;27407;24.142;-110.310;2023-04-26T08:03:56;19.20;99.90
41722;DHT22;27407;24.142;-110.310;2023-04-26T08:06:23;19.10;99.90
41722;DHT22;27407;24.142;-110.310;2023-04-26T08:08:49;19.10;99.90
41722;DHT22;27407;24.142;-110.310;2023-04-26T08:11:18;19.10;99.90
41722;DHT22;27407;24.142;-110.310;2023-04-26T08:13:44;19.00;99.90
41722;DHT22;27407;24.142;-110.310;2023-04-26T08:16:14;19.10;99.90
41722;DHT22;27407;24.142;-110.310;2023-04-26T08:18:45;19.00;99.90
41722;DHT22;27407;24.142;-110.310;2023-04-26T08:21:15;19.00;99.90
41722;DHT22;27407;24.142;-110.310;2023-04-26T08:23:45;18.90;99.90
41722;DHT22;27407;24.142;-110.310;2023-04-26T08:26:14;18.80;99.90
41722;DHT22;27407;24.142;-110.310;2023-04-26T08:28:45;18.80;99.90
41722;DHT22;27407;24.142;-110.310;2023-04-26T08:31:14;18.80;99.90
41722;DHT22;27407;24.142;-110.310;2023-04-26T08:33:44;18.70;99.90
41722;DHT22;27407;24.142;-110.310;2023-04-26T08:36:11;18.60;99.90
41722;DHT22;27407;24.142;-110.310;2023-04-26T08:38:38;18.60;99.90
41722;DHT22;27407;24.142;-110.310;2023-04-26T08:41:04;18.60;99.90
41722;DHT22;27407;24.142;-110.310;2023-04-26T08:43:36;18.60;99.90
41722;DHT22;27407;24.142;-110.310;2023-04-26T08:46:08;18.60;99.90
41722;DHT22;27407;24.142;-110.310;2023-04-26T08:48:36;18.60;99.90
41722;DHT22;27407;24.142;-110.310;2023-04-26T08:51:04;18.40;99.90
41722;DHT22;27407;24.142;-110.310;2023-04-26T08:53:34;18.50;99.90
41722;DHT22;27407;24.142;-110.310;2023-04-26T08:56:01;18.40;99.90
41722;DHT22;27407;24.142;-110.310;2023-04-26T08:58:29;18.40;99.90
41722;DHT22;27407;24.142;-110.310;2023-04-26T09:00:58;18.50;99.90
41722;DHT22;27407;24.142;-110.310;2023-04-26T09:03:25;18.40;99.90
41722;DHT22;27407;24.142;-110.310;2023-04-26T09:05:53;18.40;99.90
41722;DHT22;27407;24.142;-110.310;2023-04-26T09:08:20;18.40;99.90
41722;DHT22;27407;24.142;-110.310;2023-04-26T09:10:47;18.40;99.90
41722;DHT22;27407;24.142;-110.310;2023-04-26T09:13:14;18.50;99.90
41722;DHT22;27407;24.142;-110.310;2023-04-26T09:15:40;18.50;99.90
41722;DHT22;27407;24.142;-110.310;2023-04-26T09:20:44;18.40;99.90
41722;DHT22;27407;24.142;-110.310;2023-04-26T09:23:11;18.30;99.90
41722;DHT22;27407;24.142;-110.310;2023-04-26T09:25:38;18.30;99.90
41722;DHT22;27407;24.142;-110.310;2023-04-26T09:28:25;18.30;99.90
41722;DHT22;27407;24.142;-110.310;2023-04-26T09:30:52;18.40;99.90
41722;DHT22;27407;24.142;-110.310;2023-04-26T09:33:19;18.20;99.90
41722;DHT22;27407;24.142;-110.310;2023-04-26T09:35:46;18.20;99.90
41722;DHT22;27407;24.142;-110.310;2023-04-26T09:38:15;18.10;99.90
41722;DHT22;27407;24.142;-110.310;2023-04-26T09:40:47;18.10;99.90
41722;DHT22;27407;24.142;-110.310;2023-04-26T09:43:21;18.20;99.90
41722;DHT22;27407;24.142;-110.310;2023-04-26T09:45:56;18.10;99.90
41722;DHT22;27407;24.142;-110.310;2023-04-26T09:48:27;18.00;99.90
41722;DHT22;27407;24.142;-110.310;2023-04-26T09:50:57;18.20;99.90
41722;DHT22;27407;24.142;-110.310;2023-04-26T09:53:34;18.20;99.90
41722;DHT22;27407;24.142;-110.310;2023-04-26T09:56:12;18.00;99.90
41722;DHT22;27407;24.142;-110.310;2023-04-26T09:58:55;18.00;99.90
41722;DHT22;27407;24.142;-110.310;2023-04-26T10:01:27;18.10;99.90
41722;DHT22;27407;24.142;-110.310;2023-04-26T10:04:01;18.00;99.90
41722;DHT22;27407;24.142;-110.310;2023-04-26T10:06:29;18.10;99.90
41722;DHT22;27407;24.142;-110.310;2023-04-26T10:08:57;18.10;99.90
41722;DHT22;27407;24.142;-110.310;2023-04-26T10:11:25;18.00;99.90
41722;DHT22;27407;24.142;-110.310;2023-04-26T10:13:52;18.10;99.90
41722;DHT22;27407;24.142;-110.310;2023-04-26T10:16:20;18.10;99.90
41722;DHT22;27407;24.142;-110.310;2023-04-26T10:18:50;18.20;99.90
41722;DHT22;27407;24.142;-110.310;2023-04-26T10:21:26;18.10;99.90
41722;DHT22;27407;24.142;-110.310;2023-04-26T10:23:55;18.00;99.90
41722;DHT22;27407;24.142;-110.310;2023-04-26T10:26:54;18.20;99.90
41722;DHT22;27407;24.142;-110.310;2023-04-26T10:29:31;18.00;99.90
41722;DHT22;27407;24.142;-110.310;2023-04-26T10:32:12;18.00;99.90
41722;DHT22;27407;24.142;-110.310;2023-04-26T10:34:41;18.00;99.90
41722;DHT22;27407;24.142;-110.310;2023-04-26T10:37:15;17.90;99.90
41722;DHT22;27407;24.142;-110.310;2023-04-26T10:39:44;17.90;99.90
41722;DHT22;27407;24.142;-110.310;2023-04-26T10:42:29;17.90;99.90
41722;DHT22;27407;24.142;-110.310;2023-04-26T10:47:47;18.00;99.90
41722;DHT22;27407;24.142;-110.310;2023-04-26T10:50:14;17.90;99.90
41722;DHT22;27407;24.142;-110.310;2023-04-26T10:55:38;18.10;99.90
41722;DHT22;27407;24.142;-110.310;2023-04-26T11:03:40;18.00;99.90
41722;DHT22;27407;24.142;-110.310;2023-04-26T11:06:07;18.00;99.90
41722;DHT22;27407;24.142;-110.310;2023-04-26T11:08:42;18.20;99.90
41722;DHT22;27407;24.142;-110.310;2023-04-26T11:11:12;18.10;99.90
41722;DHT22;27407;24.142;-110.310;2023-04-26T11:13:42;18.00;99.90
41722;DHT22;27407;24.142;-110.310;2023-04-26T11:16:14;17.90;99.90
41722;DHT22;27407;24.142;-110.310;2023-04-26T11:18:45;18.00;99.90
41722;DHT22;27407;24.142;-110.310;2023-04-26T11:21:12;17.90;99.90
41722;DHT22;27407;24.142;-110.310;2023-04-26T11:23:52;17.80;99.90
41722;DHT22;27407;24.142;-110.310;2023-04-26T11:26:19;18.00;99.90
41722;DHT22;27407;24.142;-110.310;2023-04-26T11:28:48;18.10;99.90
41722;DHT22;27407;24.142;-110.310;2023-04-26T11:31:17;18.10;99.90
41722;DHT22;27407;24.142;-110.310;2023-04-26T11:33:43;18.00;99.90
41722;DHT22;27407;24.142;-110.310;2023-04-26T11:36:11;18.00;99.90
41722;DHT22;27407;24.142;-110.310;2023-04-26T11:38:38;18.20;99.90
41722;DHT22;27407;24.142;-110.310;2023-04-26T11:41:04;18.10;99.90
41722;DHT22;27407;24.142;-110.310;2023-04-26T11:43:35;18.20;99.90
41722;DHT22;27407;24.142;-110.310;2023-04-26T11:46:06;18.20;99.90
41722;DHT22;27407;24.142;-110.310;2023-04-26T11:48:35;18.20;99.90
41722;DHT22;27407;24.142;-110.310;2023-04-26T11:51:16;18.10;99.90
41722;DHT22;27407;24.142;-110.310;2023-04-26T11:53:46;18.20;99.90
41722;DHT22;27407;24.142;-110.310;2023-04-26T11:58:47;18.30;99.90
41722;DHT22;27407;24.142;-110.310;2023-04-26T12:01:34;18.20;99.90
41722;DHT22;27407;24.142;-110.310;2023-04-26T12:04:18;18.20;99.90
41722;DHT22;27407;24.142;-110.310;2023-04-26T12:06:46;18.20;99.90
41722;DHT22;27407;24.142;-110.310;2023-04-26T12:09:14;18.00;99.90
41722;DHT22;27407;24.142;-110.310;2023-04-26T12:11:47;18.00;99.90
41722;DHT22;27407;24.142;-110.310;2023-04-26T12:14:18;17.90;99.90
41722;DHT22;27407;24.142;-110.310;2023-04-26T12:16:46;18.10;99.90
41722;DHT22;27407;24.142;-110.310;2023-04-26T12:19:12;18.10;99.90
41722;DHT22;27407;24.142;-110.310;2023-04-26T12:21:46;18.20;99.90
41722;DHT22;27407;24.142;-110.310;2023-04-26T12:24:26;18.30;99.90
41722;DHT22;27407;24.142;-110.310;2023-04-26T12:26:59;18.30;99.90
41722;DHT22;27407;24.142;-110.310;2023-04-26T12:29:28;18.40;99.90
41722;DHT22;27407;24.142;-110.310;2023-04-26T12:31:59;18.60;99.90
41722;DHT22;27407;24.142;-110.310;2023-04-26T12:34:26;18.70;99.90
41722;DHT22;27407;24.142;-110.310;2023-04-26T12:36:53;18.70;99.90
41722;DHT22;27407;24.142;-110.310;2023-04-26T12:39:20;18.80;99.90
41722;DHT22;27407;24.142;-110.310;2023-04-26T12:41:47;18.90;99.90
41722;DHT22;27407;24.142;-110.310;2023-04-26T12:44:14;19.00;99.90
41722;DHT22;27407;24.142;-110.310;2023-04-26T12:46:41;19.00;99.90
41722;DHT22;27407;24.142;-110.310;2023-04-26T12:49:07;19.10;99.90
41722;DHT22;27407;24.142;-110.310;2023-04-26T12:51:34;19.10;99.90
41722;DHT22;27407;24.142;-110.310;2023-04-26T12:54:01;19.10;99.90
41722;DHT22;27407;24.142;-110.310;2023-04-26T12:56:28;19.20;99.90
41722;DHT22;27407;24.142;-110.310;2023-04-26T12:58:55;19.20;99.90
41722;DHT22;27407;24.142;-110.310;2023-04-26T13:01:22;19.30;99.90
41722;DHT22;27407;24.142;-110.310;2023-04-26T13:03:48;19.30;99.90
41722;DHT22;27407;24.142;-110.310;2023-04-26T13:06:15;19.20;99.90
41722;DHT22;27407;24.142;-110.310;2023-04-26T13:08:42;19.30;99.90
41722;DHT22;27407;24.142;-110.310;2023-04-26T13:11:09;19.40;99.90
41722;DHT22;27407;24.142;-110.310;2023-04-26T13:13:36;19.50;99.90
41722;DHT22;27407;24.142;-110.310;2023-04-26T13:16:02;19.40;99.90
41722;DHT22;27407;24.142;-110.310;2023-04-26T13:18:29;19.40;99.90
41722;DHT22;27407;24.142;-110.310;2023-04-26T13:20:58;19.30;99.90
41722;DHT22;27407;24.142;-110.310;2023-04-26T13:23:25;19.50;99.90
41722;DHT22;27407;24.142;-110.310;2023-04-26T13:25:52;19.40;99.90
41722;DHT22;27407;24.142;-110.310;2023-04-26T13:28:18;19.50;99.90
41722;DHT22;27407;24.142;-110.310;2023-04-26T13:30:45;19.60;99.90
41722;DHT22;27407;24.142;-110.310;2023-04-26T13:33:23;19.50;99.90
41722;DHT22;27407;24.142;-110.310;2023-04-26T13:35:53;19.70;99.90
41722;DHT22;27407;24.142;-110.310;2023-04-26T13:38:22;19.70;99.90
41722;DHT22;27407;24.142;-110.310;2023-04-26T13:40:52;19.80;99.90
41722;DHT22;27407;24.142;-110.310;2023-04-26T13:43:21;19.80;99.90
41722;DHT22;27407;24.142;-110.310;2023-04-26T13:45:57;19.70;99.90
41722;DHT22;27407;24.142;-110.310;2023-04-26T13:48:23;19.90;99.90
41722;DHT22;27407;24.142;-110.310;2023-04-26T13:50:50;19.70;99.90
41722;DHT22;27407;24.142;-110.310;2023-04-26T13:53:17;19.50;99.90
41722;DHT22;27407;24.142;-110.310;2023-04-26T13:55:45;19.50;99.90
41722;DHT22;27407;24.142;-110.310;2023-04-26T13:58:11;19.50;99.90
41722;DHT22;27407;24.142;-110.310;2023-04-26T14:00:38;19.50;99.90
41722;DHT22;27407;24.142;-110.310;2023-04-26T14:03:08;19.50;99.90
41722;DHT22;27407;24.142;-110.310;2023-04-26T14:05:45;19.60;99.90
41722;DHT22;27407;24.142;-110.310;2023-04-26T14:08:15;19.70;99.90
41722;DHT22;27407;24.142;-110.310;2023-04-26T14:10:45;19.70;99.90
41722;DHT22;27407;24.142;-110.310;2023-04-26T14:13:17;19.70;99.90
41722;DHT22;27407;24.142;-110.310;2023-04-26T14:16:06;19.80;99.90
41722;DHT22;27407;24.142;-110.310;2023-04-26T14:18:37;19.80;99.90
41722;DHT22;27407;24.142;-110.310;2023-04-26T14:21:14;19.80;99.90
41722;DHT22;27407;24.142;-110.310;2023-04-26T14:23:43;20.00;99.90
41722;DHT22;27407;24.142;-110.310;2023-04-26T14:26:10;19.90;99.90
41722;DHT22;27407;24.142;-110.310;2023-04-26T14:28:49;20.20;99.90
41722;DHT22;27407;24.142;-110.310;2023-04-26T14:31:20;20.20;99.90
41722;DHT22;27407;24.142;-110.310;2023-04-26T14:34:18;20.20;99.90
41722;DHT22;27407;24.142;-110.310;2023-04-26T14:36:57;20.30;99.90
41722;DHT22;27407;24.142;-110.310;2023-04-26T14:39:33;20.50;99.90
41722;DHT22;27407;24.142;-110.310;2023-04-26T14:42:00;20.50;99.90
41722;DHT22;27407;24.142;-110.310;2023-04-26T14:44:31;20.60;99.90
41722;DHT22;27407;24.142;-110.310;2023-04-26T14:46:58;20.60;99.90
41722;DHT22;27407;24.142;-110.310;2023-04-26T14:49:28;20.60;99.90
41722;DHT22;27407;24.142;-110.310;2023-04-26T14:51:56;20.60;99.90
41722;DHT22;27407;24.142;-110.310;2023-04-26T14:54:23;20.70;99.90
41722;DHT22;27407;24.142;-110.310;2023-04-26T14:56:59;20.80;99.90
41722;DHT22;27407;24.142;-110.310;2023-04-26T14:59:27;20.80;99.90
41722;DHT22;27407;24.142;-110.310;2023-04-26T15:01:59;21.00;99.90
41722;DHT22;27407;24.142;-110.310;2023-04-26T15:07:31;21.20;99.90
41722;DHT22;27407;24.142;-110.310;2023-04-26T15:09:59;21.30;99.90
41722;DHT22;27407;24.142;-110.310;2023-04-26T15:12:30;21.40;99.90
41722;DHT22;27407;24.142;-110.310;2023-04-26T15:14:57;21.70;99.90
41722;DHT22;27407;24.142;-110.310;2023-04-26T15:17:24;21.80;99.90
41722;DHT22;27407;24.142;-110.310;2023-04-26T15:20:19;22.10;99.90
41722;DHT22;27407;24.142;-110.310;2023-04-26T15:22:50;22.10;99.90
41722;DHT22;27407;24.142;-110.310;2023-04-26T15:25:17;22.40;99.90
41722;DHT22;27407;24.142;-110.310;2023-04-26T15:27:48;22.20;99.90